Time;durP1;ratioP1;P1;durP2;ratioP2;P2;SDS_P1;SDS_P2;PMS_P1;PMS_P2;Temp;Humidity;BMP_temperature;BMP_pressure;BME280_temperature;BME280_humidity;BME280_pressure;Samples;Min_cycle;Max_cycle;Signal;HPM_P1;HPM_P2
2022/02/15 00:03:24;;;;;;;2.75;1.40;;;8.30;99.90;;;;;;5074370;28;20383;-87
2022/02/15 04:47:31;;;;;;;10.50;4.07;;;7.50;99.90;;;;;;5091643;28;19966;-86
2022/02/15 04:49:57;;;;;;;8.50;4.03;;;7.50;99.90;;;;;;5045505;28;20491;-89
2022/02/15 04:52:22;;;;;;;9.85;4.68;;;7.50;99.90;;;;;;5018773;28;20049;-89
2022/02/15 04:54:48;;;;;;;11.45;4.88;;;7.50;99.90;;;;;;5020435;28;20045;-88
2022/02/15 04:57:13;;;;;;;8.50;4.13;;;7.50;99.90;;;;;;5020167;28;20030;-89
2022/02/15 04:59:39;;;;;;;9.85;4.90;;;7.50;99.90;;;;;;5036880;28;20029;-89
2022/02/15 05:02:05;;;;;;;10.52;4.93;;;7.50;99.90;;;;;;5020265;28;20025;-89
2022/02/15 05:04:49;;;;;;;11.73;5.28;;;7.50;99.90;;;;;;5020056;28;20394;-89
2022/02/15 05:07:18;;;;;;;9.05;5.25;;;7.50;99.90;;;;;;5022550;28;20037;-89
2022/02/15 05:09:44;;;;;;;12.82;5.93;;;7.60;99.90;;;;;;5036734;28;20041;-89
2022/02/15 05:12:10;;;;;;;12.00;6.10;;;7.60;99.90;;;;;;5036560;28;20042;-89
2022/02/15 05:14:36;;;;;;;15.20;6.93;;;7.60;99.90;;;;;;5019912;28;20495;-89
2022/02/15 05:17:02;;;;;;;13.93;6.82;;;7.60;99.90;;;;;;5036404;28;20076;-89
2022/02/15 05:19:28;;;;;;;15.18;7.30;;;7.60;99.90;;;;;;5019877;28;20058;-89
2022/02/15 05:21:53;;;;;;;16.27;8.02;;;7.60;99.90;;;;;;5037439;28;20026;-89
2022/02/15 05:24:20;;;;;;;17.25;7.95;;;7.60;99.90;;;;;;5020739;28;20073;-89
2022/02/15 05:26:46;;;;;;;16.38;8.38;;;7.60;99.90;;;;;;5022051;28;20061;-89
2022/02/15 05:29:13;;;;;;;15.02;8.45;;;7.60;99.90;;;;;;5036116;28;20083;-89
2022/02/15 05:31:49;;;;;;;21.77;8.50;;;7.60;99.90;;;;;;5036407;28;20132;-89
2022/02/15 05:34:16;;;;;;;16.65;9.05;;;7.60;99.90;;;;;;5019789;28;20128;-89
2022/02/15 05:36:41;;;;;;;18.25;9.98;;;7.60;99.90;;;;;;5036200;28;20040;-89
2022/02/15 05:39:08;;;;;;;22.40;10.02;;;7.60;99.90;;;;;;5036212;28;20033;-89
2022/02/15 05:41:34;;;;;;;15.60;9.68;;;7.60;99.90;;;;;;5036178;28;20036;-88
2022/02/15 05:44:00;;;;;;;18.13;9.80;;;7.60;99.90;;;;;;5035943;28;20029;-89
2022/02/15 05:46:25;;;;;;;18.55;10.77;;;7.60;99.90;;;;;;5019728;28;20061;-89
2022/02/15 05:48:51;;;;;;;19.90;10.40;;;7.60;99.90;;;;;;5019524;28;20053;-89
2022/02/15 05:51:17;;;;;;;15.82;10.25;;;7.60;99.90;;;;;;5016950;28;20033;-89
2022/02/15 05:53:42;;;;;;;15.25;9.07;;;7.60;99.90;;;;;;5032729;28;20399;-89
2022/02/15 05:56:08;;;;;;;17.90;10.77;;;7.70;99.90;;;;;;5032767;28;20464;-89
2022/02/15 05:58:34;;;;;;;16.73;11.00;;;7.60;99.90;;;;;;5033058;28;20431;-89
2022/02/15 06:01:00;;;;;;;18.67;11.43;;;7.70;99.90;;;;;;5016394;28;20049;-88
2022/02/15 06:06:32;;;;;;;20.02;12.07;;;7.60;99.90;;;;;;5034234;28;20056;-89
2022/02/15 06:09:00;;;;;;;19.85;11.75;;;7.60;99.90;;;;;;5032432;28;20029;-89
2022/02/15 06:11:27;;;;;;;18.20;11.55;;;7.60;99.90;;;;;;5036573;28;20496;-89
2022/02/15 06:13:55;;;;;;;21.80;12.98;;;7.60;99.90;;;;;;5030709;28;20037;-89
2022/02/15 06:16:22;;;;;;;18.05;11.75;;;7.60;99.90;;;;;;5028623;28;20042;-88
2022/02/15 06:18:49;;;;;;;19.95;11.80;;;7.60;99.90;;;;;;5025232;28;20026;-88
2022/02/15 06:21:23;;;;;;;23.65;13.13;;;7.60;99.90;;;;;;5027489;28;20025;-82
2022/02/15 06:23:49;;;;;;;24.27;12.43;;;7.60;99.90;;;;;;5048616;28;20038;-89
2022/02/15 06:26:15;;;;;;;18.98;11.77;;;7.60;99.90;;;;;;5023881;28;20132;-88
2022/02/15 06:28:41;;;;;;;20.25;12.18;;;7.60;99.90;;;;;;5025854;28;20034;-89
2022/02/15 06:31:06;;;;;;;25.65;13.48;;;7.60;99.90;;;;;;5046365;28;20498;-89
2022/02/15 06:33:34;;;;;;;18.77;12.38;;;7.60;99.90;;;;;;5044283;28;20072;-89
2022/02/15 06:36:01;;;;;;;19.10;12.57;;;7.60;99.90;;;;;;5031013;28;20034;-89
2022/02/15 06:38:26;;;;;;;26.90;13.13;;;7.60;99.90;;;;;;5051724;28;20030;-88
2022/02/15 06:40:52;;;;;;;21.05;12.70;;;7.60;99.90;;;;;;5051339;28;20045;-89
2022/02/15 06:43:18;;;;;;;21.45;13.10;;;7.60;99.90;;;;;;5034406;28;20094;-88
2022/02/15 06:45:44;;;;;;;20.70;12.18;;;7.60;99.90;;;;;;5033516;28;20045;-89
2022/02/15 06:48:11;;;;;;;22.50;13.18;;;7.60;99.90;;;;;;5049367;28;20069;-89
2022/02/15 06:50:37;;;;;;;23.70;13.00;;;7.70;99.90;;;;;;5022845;28;20149;-88
2022/02/15 06:53:03;;;;;;;24.45;13.30;;;7.60;99.90;;;;;;5036020;28;20044;-89
2022/02/15 06:55:29;;;;;;;24.70;12.95;;;7.60;99.90;;;;;;5060734;28;20391;-89
2022/02/15 06:57:55;;;;;;;22.23;13.60;;;7.60;99.90;;;;;;5006665;28;20034;-88
2022/02/15 07:00:23;;;;;;;23.73;13.80;;;7.60;99.90;;;;;;5039155;28;20509;-89
2022/02/15 07:02:52;;;;;;;19.45;13.00;;;7.60;99.90;;;;;;5004484;28;20053;-89
2022/02/15 07:05:18;;;;;;;20.00;12.60;;;7.70;99.90;;;;;;5053624;28;20042;-89
2022/02/15 07:07:47;;;;;;;20.52;13.07;;;7.70;99.90;;;;;;5036895;28;20033;-89
2022/02/15 07:10:12;;;;;;;24.38;13.43;;;7.70;99.90;;;;;;5002498;28;20479;-88
2022/02/15 07:12:41;;;;;;;21.02;13.60;;;7.60;99.90;;;;;;5036068;28;20072;-89
2022/02/15 07:15:07;;;;;;;22.80;13.35;;;7.70;99.90;;;;;;5035288;28;20042;-89
2022/02/15 07:20:56;;;;;;;23.33;13.45;;;7.70;99.90;;;;;;5056367;28;20031;-89
2022/02/15 07:23:21;;;;;;;23.02;13.18;;;7.70;99.90;;;;;;5021491;28;20043;-89
2022/02/15 07:25:47;;;;;;;22.40;12.63;;;7.70;99.90;;;;;;5061955;28;20048;-90
2022/02/15 07:28:13;;;;;;;22.83;12.57;;;7.70;99.90;;;;;;5045836;28;20444;-89
2022/02/15 07:30:38;;;;;;;17.83;11.48;;;7.70;99.90;;;;;;5044410;28;20029;-89
2022/02/15 07:33:04;;;;;;;25.38;13.43;;;7.70;99.90;;;;;;5021472;28;20033;-89
2022/02/15 07:35:30;;;;;;;19.75;11.40;;;7.80;99.90;;;;;;5029218;28;20094;-90
2022/02/15 07:37:56;;;;;;;22.42;11.43;;;7.80;99.90;;;;;;5029573;28;20033;-90
2022/02/15 07:40:22;;;;;;;19.73;12.00;;;7.80;99.90;;;;;;5022273;28;20029;-90
2022/02/15 07:42:49;;;;;;;19.77;10.93;;;7.80;99.90;;;;;;5021180;28;20029;-90
2022/02/15 07:45:19;;;;;;;25.92;12.30;;;7.80;99.90;;;;;;5037235;28;20043;-89
2022/02/15 07:47:49;;;;;;;22.73;11.85;;;7.80;99.90;;;;;;5037034;28;20037;-90
2022/02/15 07:50:17;;;;;;;21.38;11.68;;;7.80;99.90;;;;;;5020893;28;20052;-90
2022/02/15 07:52:47;;;;;;;20.77;9.63;;;7.80;99.90;;;;;;5021810;28;20130;-90
2022/02/15 07:55:14;;;;;;;24.23;11.73;;;7.80;99.90;;;;;;5023376;28;20040;-90
2022/02/15 07:57:41;;;;;;;21.40;10.13;;;7.80;99.90;;;;;;5054634;28;20065;-90
2022/02/15 08:00:07;;;;;;;24.98;10.50;;;7.80;99.90;;;;;;5020712;28;20037;-90
2022/02/15 08:02:33;;;;;;;16.25;9.15;;;7.80;99.90;;;;;;5038927;28;20029;-90
2022/02/15 08:05:03;;;;;;;21.55;8.90;;;7.80;99.90;;;;;;5023156;28;20033;-90
2022/02/15 08:07:37;;;;;;;18.58;9.75;;;7.80;99.90;;;;;;5040630;28;20103;-90
2022/02/15 08:10:04;;;;;;;21.92;9.70;;;7.80;99.90;;;;;;5025472;28;20037;-91
2022/02/15 08:12:30;;;;;;;25.88;9.40;;;7.80;99.90;;;;;;5054305;28;20045;-90
2022/02/15 08:14:56;;;;;;;18.58;7.93;;;7.80;99.90;;;;;;5032527;28;20041;-90
2022/02/15 08:17:25;;;;;;;14.88;7.88;;;7.80;99.90;;;;;;5012418;28;20040;-90
2022/02/15 08:19:59;;;;;;;17.90;7.63;;;7.90;99.90;;;;;;5035608;28;20033;-88
2022/02/15 08:22:25;;;;;;;18.45;7.75;;;7.90;99.90;;;;;;5015765;28;20048;-90
2022/02/15 08:24:51;;;;;;;18.98;7.22;;;8.00;99.90;;;;;;5018395;28;20038;-90
2022/02/15 08:27:17;;;;;;;22.67;7.65;;;8.00;99.90;;;;;;5006938;28;20041;-90
2022/02/15 08:29:44;;;;;;;17.10;7.13;;;8.00;99.90;;;;;;5050081;28;20049;-89
2022/02/15 08:32:11;;;;;;;20.33;6.60;;;8.00;99.90;;;;;;5044233;28;20041;-89
2022/02/15 08:34:37;;;;;;;14.95;6.30;;;8.10;99.90;;;;;;5000702;28;20041;-90
2022/02/15 08:37:04;;;;;;;14.63;5.90;;;8.10;99.90;;;;;;5018617;28;20029;-90
2022/02/15 08:39:30;;;;;;;19.73;6.18;;;8.10;99.90;;;;;;5014062;28;20037;-90
2022/02/15 08:41:56;;;;;;;16.20;6.68;;;8.10;99.90;;;;;;5020367;28;20483;-91
2022/02/15 08:44:22;;;;;;;12.52;5.63;;;8.10;99.90;;;;;;5033387;28;20162;-90
2022/02/15 08:46:52;;;;;;;17.83;6.72;;;8.10;99.90;;;;;;5040919;28;20025;-90
2022/02/15 08:49:18;;;;;;;17.17;6.07;;;8.10;99.90;;;;;;5016415;28;20485;-90
2022/02/15 08:51:44;;;;;;;17.13;6.60;;;8.20;99.90;;;;;;5041276;28;20083;-90
2022/02/15 08:54:12;;;;;;;15.48;6.00;;;8.20;99.90;;;;;;5027220;28;20049;-90
2022/02/15 08:56:38;;;;;;;18.73;6.20;;;8.20;99.90;;;;;;5026036;28;20399;-90
2022/02/15 08:59:04;;;;;;;12.52;5.15;;;8.20;99.90;;;;;;5026391;28;20037;-90
2022/02/15 09:01:32;;;;;;;25.83;6.18;;;8.20;99.90;;;;;;5011442;28;20033;-90
2022/02/15 09:03:57;;;;;;;14.07;5.53;;;8.30;99.90;;;;;;5018800;28;20037;-90
2022/02/15 09:06:23;;;;;;;12.50;5.32;;;8.30;99.90;;;;;;5018188;28;20120;-90
2022/02/15 09:08:49;;;;;;;13.50;5.63;;;8.20;99.90;;;;;;5011674;28;20502;-89
2022/02/15 09:11:14;;;;;;;16.58;5.38;;;8.30;99.90;;;;;;5026949;28;20044;-89
2022/02/15 09:13:40;;;;;;;16.45;6.32;;;8.30;99.90;;;;;;5011271;28;20506;-90
2022/02/15 09:16:06;;;;;;;17.05;5.60;;;8.30;99.90;;;;;;5036754;28;20117;-89
2022/02/15 09:18:31;;;;;;;15.95;6.28;;;8.30;99.90;;;;;;5019780;28;20034;-89
2022/02/15 09:20:57;;;;;;;13.93;5.32;;;8.30;99.90;;;;;;5018629;28;20114;-89
2022/02/15 09:23:23;;;;;;;17.58;5.15;;;8.30;99.90;;;;;;5010837;28;20048;-89
2022/02/15 09:25:49;;;;;;;17.63;5.32;;;8.40;99.90;;;;;;5038392;28;20038;-89
2022/02/15 09:28:14;;;;;;;13.85;4.60;;;8.50;99.90;;;;;;5017775;28;20040;-90
2022/02/15 09:30:40;;;;;;;13.32;5.25;;;8.50;99.90;;;;;;5022754;28;20119;-90
2022/02/15 09:33:06;;;;;;;16.08;5.82;;;8.50;99.90;;;;;;5010318;28;20044;-88
2022/02/15 09:35:31;;;;;;;13.82;5.47;;;8.60;99.90;;;;;;5037144;28;20048;-87
2022/02/15 09:37:57;;;;;;;15.88;4.68;;;8.60;99.90;;;;;;5020832;28;20096;-88
2022/02/15 09:40:29;;;;;;;13.55;3.65;;;8.60;99.90;;;;;;5023213;28;20029;-89
2022/02/15 09:42:56;;;;;;;14.75;3.88;;;8.70;99.90;;;;;;5044450;28;20028;-89
2022/02/15 09:45:21;;;;;;;12.85;4.05;;;8.70;99.90;;;;;;5040234;28;20119;-88
2022/02/15 09:47:51;;;;;;;10.35;3.60;;;8.70;99.90;;;;;;5034805;28;20187;-88
2022/02/15 09:50:16;;;;;;;14.25;4.22;;;8.80;99.90;;;;;;5028329;28;20110;-89
2022/02/15 09:52:47;;;;;;;11.70;3.47;;;8.80;99.90;;;;;;5018911;28;20531;-89
2022/02/15 09:55:13;;;;;;;13.38;5.07;;;8.90;99.90;;;;;;5052931;28;20140;-88
2022/02/15 09:57:39;;;;;;;9.20;3.13;;;8.90;99.90;;;;;;5041049;28;20786;-88
2022/02/15 10:00:05;;;;;;;13.65;3.85;;;8.90;99.90;;;;;;5038120;28;20033;-89
2022/02/15 10:02:35;;;;;;;11.40;3.20;;;8.90;99.90;;;;;;5030322;28;20125;-88
2022/02/15 10:05:01;;;;;;;12.45;3.40;;;8.90;99.90;;;;;;5044210;28;20021;-88
2022/02/15 10:07:28;;;;;;;13.10;3.72;;;8.90;99.90;;;;;;5035703;28;20091;-88
2022/02/15 10:09:56;;;;;;;9.65;2.88;;;8.90;99.90;;;;;;5022452;28;20052;-88
2022/02/15 10:12:24;;;;;;;9.50;2.78;;;8.90;99.90;;;;;;5043934;28;20028;-88
2022/02/15 10:14:54;;;;;;;7.82;2.45;;;8.90;99.90;;;;;;5042311;28;20123;-88
2022/02/15 10:17:21;;;;;;;6.22;2.25;;;8.90;99.90;;;;;;5029994;28;20033;-87
2022/02/15 10:19:49;;;;;;;8.98;1.90;;;8.90;99.90;;;;;;5042376;28;20049;-87
2022/02/15 10:22:21;;;;;;;6.47;1.70;;;9.00;99.90;;;;;;5038415;28;20061;-89
2022/02/15 10:24:55;;;;;;;7.38;1.70;;;9.00;99.90;;;;;;5026855;28;20029;-88
2022/02/15 10:27:28;;;;;;;9.63;1.90;;;9.00;99.90;;;;;;5029325;28;20048;-89
2022/02/15 10:29:54;;;;;;;10.10;2.08;;;9.10;99.90;;;;;;5025044;28;20030;-89
2022/02/15 10:32:22;;;;;;;6.80;1.67;;;9.10;99.90;;;;;;5028889;28;20051;-89
2022/02/15 10:34:56;;;;;;;15.65;3.47;;;9.10;99.90;;;;;;5016483;28;20037;-89
2022/02/15 10:37:29;;;;;;;11.80;2.58;;;9.10;99.90;;;;;;5038076;28;20459;-91
2022/02/15 10:40:06;;;;;;;11.55;2.60;;;9.00;99.90;;;;;;5034385;28;20025;-89
2022/02/15 10:42:33;;;;;;;11.98;2.80;;;9.00;99.90;;;;;;5029662;28;20371;-89
2022/02/15 10:45:09;;;;;;;8.10;2.20;;;9.10;99.90;;;;;;5023906;28;20059;-89
2022/02/15 10:47:38;;;;;;;12.73;2.35;;;9.10;99.90;;;;;;5016809;28;20080;-88
2022/02/15 10:50:09;;;;;;;14.98;2.70;;;9.20;99.90;;;;;;5031199;28;20056;-89
2022/02/15 10:52:34;;;;;;;;;;;9.30;99.90;;;;;;5019418;28;20038;-89
2022/02/15 10:55:01;;;;;;;12.05;2.58;;;9.40;99.90;;;;;;5033935;28;19913;-89
2022/02/15 10:57:28;;;;;;;9.75;2.40;;;9.50;99.90;;;;;;5017764;28;20109;-89
2022/02/15 10:59:54;;;;;;;8.57;2.30;;;9.60;99.90;;;;;;5034555;28;20042;-88
2022/02/15 11:02:26;;;;;;;7.30;1.50;;;9.60;99.90;;;;;;5017852;28;20041;-89
2022/02/15 11:04:56;;;;;;;7.32;1.58;;;9.70;99.90;;;;;;5017480;28;20561;-89
2022/02/15 11:07:33;;;;;;;9.75;1.80;;;9.90;99.90;;;;;;5034213;28;20041;-89
2022/02/15 11:10:24;;;;;;;10.00;1.70;;;10.00;99.90;;;;;;5034188;28;20052;-88
2022/02/15 11:13:03;;;;;;;9.05;1.70;;;10.10;99.90;;;;;;5047796;28;20037;-89
2022/02/15 11:15:31;;;;;;;8.43;2.00;;;10.20;99.90;;;;;;5017289;28;20036;-89
2022/02/15 11:18:05;;;;;;;7.07;1.65;;;10.20;99.90;;;;;;5016693;28;20033;-89
2022/02/15 11:20:59;;;;;;;9.02;2.58;;;10.30;99.90;;;;;;5017137;28;20033;-89
2022/02/15 11:23:27;;;;;;;8.98;1.80;;;10.40;99.90;;;;;;5017281;28;20112;-88
2022/02/15 11:26:05;;;;;;;9.52;2.53;;;10.40;99.90;;;;;;5017056;28;20061;-88
2022/02/15 11:28:31;;;;;;;8.77;1.67;;;10.40;99.90;;;;;;5017263;28;20044;-89
2022/02/15 11:31:00;;;;;;;9.60;1.90;;;10.40;99.90;;;;;;5016746;28;20030;-88
2022/02/15 11:33:30;;;;;;;7.07;1.48;;;10.40;99.90;;;;;;5017171;28;20041;-88
2022/02/15 11:35:57;;;;;;;7.32;1.98;;;10.30;99.90;;;;;;5000841;28;20558;-89
2022/02/15 11:38:24;;;;;;;6.07;1.77;;;10.40;99.90;;;;;;5034749;28;20127;-88
2022/02/15 11:41:05;;;;;;;7.85;1.55;;;10.40;99.90;;;;;;5022341;23;20061;-89
2022/02/15 11:43:34;;;;;;;7.28;1.50;;;10.30;99.90;;;;;;5034064;28;20079;-88
2022/02/15 11:46:01;;;;;;;5.43;1.60;;;10.30;99.90;;;;;;5036442;28;20034;-88
2022/02/15 11:48:41;;;;;;;12.40;2.35;;;10.30;99.90;;;;;;5019313;28;20372;-88
2022/02/15 11:51:20;;;;;;;8.00;2.00;;;10.30;99.90;;;;;;5032831;28;20064;-89
2022/02/15 11:53:47;;;;;;;5.97;1.48;;;10.30;99.90;;;;;;5035315;28;20037;-89
2022/02/15 11:56:17;;;;;;;6.22;1.50;;;10.40;99.90;;;;;;5036847;28;20104;-89
2022/02/15 11:58:49;;;;;;;7.57;1.58;;;10.50;99.90;;;;;;5019758;28;20378;-88
2022/02/15 12:01:32;;;;;;;6.57;1.55;;;10.60;99.90;;;;;;5032206;28;20025;-90
2022/02/15 12:04:00;;;;;;;7.32;1.70;;;10.70;99.90;;;;;;5019280;28;20060;-89
2022/02/15 12:06:39;;;;;;;5.30;1.27;;;10.90;98.60;;;;;;5016889;28;20112;-91
2022/02/15 12:09:07;;;;;;;7.93;1.52;;;10.90;99.80;;;;;;5032994;28;20061;-89
2022/02/15 12:11:44;;;;;;;5.90;1.60;;;11.00;99.20;;;;;;5033092;28;20137;-87
2022/02/15 12:14:16;;;;;;;4.88;1.58;;;11.00;97.90;;;;;;5014816;28;20041;-90
2022/02/15 12:16:44;;;;;;;7.38;1.75;;;11.10;97.10;;;;;;5016395;28;20033;-88
2022/02/15 12:22:32;;;;;;;7.35;2.53;;;11.10;96.90;;;;;;5031284;28;20031;-88
2022/02/15 12:24:57;;;;;;;6.03;2.45;;;11.10;96.70;;;;;;5016291;28;20041;-89
2022/02/15 12:27:25;;;;;;;7.57;1.95;;;11.10;97.40;;;;;;5016818;28;20113;-89
2022/02/15 12:29:52;;;;;;;8.05;1.90;;;11.20;96.30;;;;;;5016842;28;20068;-88
2022/02/15 12:32:27;;;;;;;6.78;2.92;;;11.20;95.90;;;;;;5016675;28;20038;-89
2022/02/15 12:34:54;;;;;;;6.20;2.15;;;11.20;96.50;;;;;;5032846;28;20451;-89
2022/02/15 12:37:23;;;;;;;6.10;2.03;;;11.20;95.30;;;;;;5016467;28;20498;-88
2022/02/15 12:39:57;;;;;;;5.28;2.00;;;11.20;95.60;;;;;;5049611;28;20065;-90
2022/02/15 12:42:26;;;;;;;4.88;1.75;;;11.10;95.40;;;;;;5029147;28;20033;-91
2022/02/15 12:44:56;;;;;;;6.28;1.92;;;11.10;94.30;;;;;;5013532;28;20168;-91
2022/02/15 12:47:22;;;;;;;6.50;2.08;;;11.10;96.10;;;;;;5029586;28;20038;-91
2022/02/15 12:49:50;;;;;;;6.30;1.83;;;11.10;94.50;;;;;;5013422;28;20061;-91
2022/02/15 12:52:15;;;;;;;6.18;1.52;;;11.10;94.40;;;;;;5013703;28;20034;-90
2022/02/15 12:54:51;;;;;;;9.77;2.00;;;11.20;94.60;;;;;;5015561;28;20057;-91
2022/02/15 12:57:20;;;;;;;6.93;1.45;;;11.20;94.10;;;;;;5041618;28;20041;-90
2022/02/15 12:59:46;;;;;;;3.63;1.42;;;11.30;93.40;;;;;;5037840;28;20116;-90
2022/02/15 13:02:15;;;;;;;4.90;1.45;;;11.30;94.00;;;;;;5032329;28;20080;-90
2022/02/15 13:04:47;;;;;;;3.60;1.23;;;11.20;93.30;;;;;;5018567;28;20041;-90
2022/02/15 13:07:13;;;;;;;8.18;1.50;;;11.20;92.80;;;;;;5033401;28;20033;-90
2022/02/15 13:09:40;;;;;;;6.00;1.60;;;11.10;93.30;;;;;;5023522;28;20092;-90
2022/02/15 13:12:08;;;;;;;5.97;1.63;;;11.10;93.90;;;;;;5036475;28;20051;-90
2022/02/15 13:14:35;;;;;;;12.25;1.45;;;11.20;93.50;;;;;;5040045;28;20565;-90
2022/02/15 13:17:03;;;;;;;17.25;1.70;;;11.20;93.50;;;;;;5039867;28;20037;-90
2022/02/15 13:19:33;;;;;;;6.75;1.27;;;11.30;93.50;;;;;;5040003;28;20059;-90
2022/02/15 13:22:11;;;;;;;5.25;1.35;;;11.30;93.70;;;;;;5056456;28;20068;-89
2022/02/15 13:24:37;;;;;;;4.93;1.45;;;11.30;93.50;;;;;;5056412;28;20021;-89
2022/02/15 13:27:03;;;;;;;6.70;1.52;;;11.30;94.00;;;;;;5039637;28;20482;-89
2022/02/15 13:29:36;;;;;;;6.18;2.03;;;11.30;93.70;;;;;;5055971;28;20037;-90
2022/02/15 13:32:03;;;;;;;3.65;1.30;;;11.30;93.60;;;;;;5056241;28;20028;-90
2022/02/15 13:34:37;;;;;;;6.57;1.70;;;11.30;94.10;;;;;;5028210;28;20128;-90
2022/02/15 13:37:07;;;;;;;7.05;1.30;;;11.30;94.10;;;;;;5037178;28;20393;-89
2022/02/15 13:39:34;;;;;;;5.43;1.30;;;11.40;94.10;;;;;;5051333;28;20044;-90
2022/02/15 13:42:00;;;;;;;6.53;1.75;;;11.40;93.70;;;;;;5057064;28;20036;-90
2022/02/15 13:44:27;;;;;;;6.80;1.73;;;11.50;93.60;;;;;;5056216;28;20067;-90
2022/02/15 13:46:53;;;;;;;6.97;1.77;;;11.50;93.30;;;;;;5039241;28;20040;-90
2022/02/15 13:49:19;;;;;;;7.10;1.58;;;11.50;93.80;;;;;;5022945;28;20052;-91
2022/02/15 13:51:45;;;;;;;7.78;1.83;;;11.50;93.90;;;;;;5039127;28;20033;-90
2022/02/15 13:54:11;;;;;;;7.55;1.70;;;11.50;94.10;;;;;;5038805;28;20045;-90
2022/02/15 13:56:38;;;;;;;7.60;1.40;;;11.60;94.30;;;;;;5039170;28;20030;-90
2022/02/15 13:59:07;;;;;;;7.85;1.58;;;11.60;94.60;;;;;;5039280;28;20091;-90
2022/02/15 14:01:35;;;;;;;7.50;1.48;;;11.70;94.50;;;;;;5038907;28;20025;-90
2022/02/15 14:04:01;;;;;;;7.68;1.40;;;11.80;94.80;;;;;;5038991;28;20036;-90
2022/02/15 14:06:28;;;;;;;6.85;2.25;;;11.70;94.30;;;;;;5055698;28;20033;-90
2022/02/15 14:08:54;;;;;;;5.80;1.25;;;11.70;94.50;;;;;;5039258;28;20398;-91
2022/02/15 14:11:20;;;;;;;9.25;2.58;;;11.70;93.90;;;;;;5038867;28;20025;-89
2022/02/15 14:13:46;;;;;;;9.13;1.60;;;11.60;94.10;;;;;;5038794;28;20029;-90
2022/02/15 14:16:13;;;;;;;6.38;1.50;;;11.50;94.50;;;;;;5038813;28;20040;-90
2022/02/15 14:18:39;;;;;;;9.00;1.55;;;11.50;94.40;;;;;;5055386;28;20041;-91
2022/02/15 14:21:05;;;;;;;12.85;2.22;;;11.40;95.10;;;;;;5038889;28;20033;-90
2022/02/15 14:23:32;;;;;;;7.55;1.75;;;11.30;94.70;;;;;;5038953;28;20033;-91
2022/02/15 14:25:58;;;;;;;6.30;1.40;;;11.30;95.00;;;;;;5038321;28;20033;-91
2022/02/15 14:28:24;;;;;;;9.20;1.77;;;11.30;95.30;;;;;;5038521;28;20045;-90
2022/02/15 14:30:49;;;;;;;6.18;1.38;;;11.20;95.70;;;;;;5038473;28;20131;-90
2022/02/15 14:33:16;;;;;;;6.75;1.45;;;11.20;95.50;;;;;;5032392;28;20041;-89
2022/02/15 14:35:46;;;;;;;6.70;1.40;;;11.20;95.60;;;;;;5018352;28;20033;-89
2022/02/15 14:38:12;;;;;;;11.05;2.33;;;11.20;95.70;;;;;;5018565;28;20483;-89
2022/02/15 14:40:38;;;;;;;6.93;1.80;;;11.20;96.20;;;;;;5002521;28;20056;-90
2022/02/15 14:43:05;;;;;;;6.82;1.40;;;11.10;96.40;;;;;;5002095;28;20033;-90
2022/02/15 14:45:31;;;;;;;6.47;1.70;;;11.20;96.30;;;;;;5018505;28;20146;-90
2022/02/15 14:47:58;;;;;;;5.40;1.45;;;11.20;96.30;;;;;;5018404;28;20037;-88
2022/02/15 14:50:24;;;;;;;7.68;1.73;;;11.10;95.70;;;;;;5018206;28;20060;-90
2022/02/15 14:52:50;;;;;;;5.65;1.23;;;11.10;96.10;;;;;;5002311;28;20116;-89
2022/02/15 14:55:22;;;;;;;6.60;1.40;;;11.10;96.50;;;;;;5035295;28;20087;-90
2022/02/15 14:57:48;;;;;;;6.82;1.30;;;11.00;96.60;;;;;;5041313;28;20079;-89
2022/02/15 15:00:14;;;;;;;5.30;1.33;;;11.10;96.40;;;;;;5034613;28;20029;-88
2022/02/15 15:02:39;;;;;;;5.40;1.25;;;11.10;96.70;;;;;;5023751;28;20478;-88
2022/02/15 15:05:06;;;;;;;3.35;1.25;;;11.00;96.80;;;;;;5026807;28;20037;-88
2022/02/15 15:07:32;;;;;;;8.88;1.52;;;11.10;96.50;;;;;;5032010;28;20103;-88
2022/02/15 15:09:58;;;;;;;5.28;1.30;;;11.00;96.70;;;;;;5020568;28;20033;-89
2022/02/15 15:12:24;;;;;;;9.75;1.77;;;11.00;96.60;;;;;;5040368;28;20079;-89
2022/02/15 15:14:49;;;;;;;6.10;1.40;;;11.00;96.90;;;;;;5037268;28;20044;-91
2022/02/15 15:17:18;;;;;;;7.38;1.40;;;11.00;96.90;;;;;;5037247;28;20076;-89
2022/02/15 15:19:44;;;;;;;8.73;1.92;;;11.00;96.70;;;;;;5057318;28;20060;-88
2022/02/15 15:22:14;;;;;;;7.75;1.70;;;10.90;97.00;;;;;;5037366;28;20064;-89
2022/02/15 15:24:43;;;;;;;5.35;1.63;;;10.90;96.80;;;;;;5036996;28;20040;-90
2022/02/15 15:27:16;;;;;;;7.97;1.60;;;10.90;97.20;;;;;;5037979;28;20055;-89
2022/02/15 15:29:42;;;;;;;12.20;1.40;;;10.90;96.90;;;;;;5021510;28;20065;-89
2022/02/15 15:32:08;;;;;;;20.02;1.85;;;10.90;96.90;;;;;;5037324;28;20512;-91
2022/02/15 15:34:34;;;;;;;10.35;2.15;;;10.80;97.00;;;;;;5021022;28;20059;-90
2022/02/15 15:37:00;;;;;;;7.82;1.27;;;10.80;97.30;;;;;;5021582;28;20119;-89
2022/02/15 15:39:27;;;;;;;8.70;1.45;;;10.80;97.80;;;;;;5037857;28;20134;-89
2022/02/15 15:41:52;;;;;;;6.72;1.00;;;10.90;97.50;;;;;;5021153;28;20045;-90
2022/02/15 15:44:18;;;;;;;7.25;1.30;;;10.80;97.70;;;;;;5004493;28;20589;-90
2022/02/15 15:46:44;;;;;;;11.90;2.13;;;10.80;97.50;;;;;;5053809;28;20063;-89
2022/02/15 15:49:09;;;;;;;6.80;1.30;;;10.80;97.50;;;;;;5026945;28;20457;-90
2022/02/15 15:51:36;;;;;;;8.13;1.10;;;10.80;97.80;;;;;;5021025;28;20046;-90
2022/02/15 15:54:02;;;;;;;4.72;1.30;;;10.80;97.80;;;;;;5018913;28;20517;-90
2022/02/15 15:56:29;;;;;;;8.38;1.30;;;10.80;97.80;;;;;;5032285;28;20071;-90
2022/02/15 15:58:56;;;;;;;6.57;1.52;;;10.80;98.80;;;;;;5036083;28;20036;-89
2022/02/15 16:01:22;;;;;;;9.82;1.58;;;10.80;98.50;;;;;;5037405;28;20135;-89
2022/02/15 16:03:47;;;;;;;6.63;1.50;;;10.70;98.90;;;;;;5040333;28;20490;-89
2022/02/15 16:06:13;;;;;;;5.00;1.73;;;10.70;99.60;;;;;;5041165;28;20501;-89
2022/02/15 16:08:39;;;;;;;6.18;1.27;;;10.60;99.60;;;;;;5035627;28;20475;-88
2022/02/15 16:11:06;;;;;;;9.30;2.38;;;10.60;99.90;;;;;;5030705;28;20421;-88
2022/02/15 16:13:32;;;;;;;7.90;1.77;;;10.60;99.90;;;;;;5038910;28;20041;-88
2022/02/15 16:15:58;;;;;;;8.20;1.92;;;10.50;99.90;;;;;;5036350;28;20132;-89
2022/02/15 16:18:24;;;;;;;6.80;1.73;;;10.50;99.90;;;;;;5035834;28;20124;-88
2022/02/15 16:20:50;;;;;;;9.15;2.55;;;10.50;99.90;;;;;;5038623;28;20036;-89
2022/02/15 16:23:16;;;;;;;5.50;1.67;;;10.40;99.90;;;;;;5039317;28;20041;-89
2022/02/15 16:25:42;;;;;;;5.72;1.58;;;10.40;99.90;;;;;;5022245;28;20037;-89
2022/02/15 16:28:08;;;;;;;8.27;2.28;;;10.30;99.90;;;;;;5035528;28;20041;-89
2022/02/15 16:30:37;;;;;;;8.85;1.70;;;10.40;99.90;;;;;;5035889;28;20036;-89
2022/02/15 16:33:03;;;;;;;12.05;1.92;;;10.30;99.90;;;;;;5052631;28;20126;-88
2022/02/15 16:35:32;;;;;;;10.13;2.00;;;10.40;99.90;;;;;;5040417;28;20064;-88
2022/02/15 16:37:58;;;;;;;4.13;1.35;;;10.40;99.90;;;;;;5047631;28;20036;-88
2022/02/15 16:40:24;;;;;;;8.88;1.85;;;10.30;99.90;;;;;;5020205;28;20403;-88
2022/02/15 16:42:50;;;;;;;8.25;1.80;;;10.30;99.90;;;;;;5021497;28;20052;-88
2022/02/15 16:45:15;;;;;;;8.50;1.88;;;10.30;99.90;;;;;;5033280;28;20037;-88
2022/02/15 16:47:41;;;;;;;8.98;1.80;;;10.30;99.90;;;;;;5018633;28;20045;-88
2022/02/15 16:50:08;;;;;;;8.32;1.52;;;10.20;99.90;;;;;;5054986;28;20033;-88
2022/02/15 16:52:36;;;;;;;5.97;1.73;;;10.20;99.90;;;;;;5027382;28;20110;-88
2022/02/15 16:55:04;;;;;;;8.45;1.60;;;10.20;99.90;;;;;;5021850;28;20048;-88
2022/02/15 16:57:30;;;;;;;6.20;1.70;;;10.10;99.90;;;;;;5038075;28;20025;-88
2022/02/15 16:59:55;;;;;;;6.65;1.60;;;10.10;99.90;;;;;;5042376;28;20441;-89
2022/02/15 17:02:21;;;;;;;7.38;1.77;;;10.00;99.90;;;;;;5025230;28;20044;-88
2022/02/15 17:04:47;;;;;;;13.13;1.70;;;10.00;99.90;;;;;;5039623;28;20071;-88
2022/02/15 17:07:12;;;;;;;9.60;1.80;;;10.00;99.90;;;;;;5026838;28;20032;-89
2022/02/15 17:09:39;;;;;;;6.50;1.55;;;9.90;99.90;;;;;;5042457;28;20099;-89
2022/02/15 17:12:12;;;;;;;6.57;1.73;;;9.90;99.90;;;;;;5042385;28;20039;-89
2022/02/15 17:14:38;;;;;;;9.43;2.05;;;9.90;99.90;;;;;;5057125;28;20026;-89
2022/02/15 17:17:04;;;;;;;12.57;2.00;;;9.90;99.90;;;;;;5024771;28;20025;-90
2022/02/15 17:19:30;;;;;;;8.85;1.92;;;9.90;99.90;;;;;;5009461;28;20102;-89
2022/02/15 17:21:55;;;;;;;9.90;2.08;;;9.90;99.90;;;;;;5058868;28;20029;-89
2022/02/15 17:24:21;;;;;;;5.10;1.77;;;9.90;99.90;;;;;;5043551;28;20057;-89
2022/02/15 17:26:48;;;;;;;11.23;2.25;;;9.80;99.90;;;;;;5022999;28;20119;-89
2022/02/15 17:29:14;;;;;;;8.57;2.20;;;9.80;99.90;;;;;;5021616;28;20037;-89
2022/02/15 17:31:40;;;;;;;9.60;1.80;;;9.80;99.90;;;;;;5021022;28;20509;-89
2022/02/15 17:34:06;;;;;;;9.38;2.20;;;9.80;99.90;;;;;;5021142;28;20397;-88
2022/02/15 17:36:32;;;;;;;10.93;1.65;;;9.70;99.90;;;;;;5020726;28;20132;-89
2022/02/15 17:38:58;;;;;;;9.45;1.88;;;9.70;99.90;;;;;;5023273;28;20549;-88
2022/02/15 17:41:24;;;;;;;14.95;3.20;;;9.70;99.90;;;;;;5018354;28;20041;-91